LEAO

Ciudad Real Airport

Ciudad Real, Spain
TAF LEAO 211700Z 2118/2203 10006KT CAVOK
Issued Valid From Valid To
Jun-21 @ 17:00 UTC
(an hour ago)
Jun-21 @ 18:00 UTC
(8 minutes ago)
Jun-22 @ 03:00 UTC
(in 9 hours)
Jun-21 @ 18:00 to Jun-22 @ 03:00
TAF LEAO 211700Z 2118/2203 10006KT CAVOK
Wind Visibility Clouds Conditions
100° at 6 knots 10,000+ meters
  • No significant clouds
TAF LEAO 211700Z 2118/2203 10006KT CAVOK
Issued Jun-21 @ 17:00 UTC
(an hour ago)
Valid From Jun-21 @ 18:00 UTC
(8 minutes ago)
Valid To Jun-22 @ 03:00 UTC
(in 9 hours)
Jun-21 @ 18:00 - Jun-22 @ 03:00
Wind Visibility
100° at 6 knots 10,000+ meters
Clouds
  • No significant clouds
Conditions